Main page
METAR-TAF:

METAR-TAF

Airports :

Dehradun, India

Jolly Grant Airport

latitude: 30-11-23N, longitude: 78-10-49E, elevation: 558 m

Current weather observation

The report was made 8 hours and 37 minutes ago, at 12:00 UTC
Wind 8 kt from the East/Southeast
Temperature 32°C
Humidity 26%
Pressure 1008 hPa
Visibility: 6000 m
Scattered clouds at a height of 4000 ft

METAR: VIDN 301200Z 11008KT 6000 SCT040 32/10 Q1008

Time: 02:07 (20:37 UTC)


TAF: missing

Weather observations and forecasts of more than 4000 airports (METAR and TAF reports).

The available stations are represented by yellow and red dots on the map.

Hover mouse over dot to see the name of the station.

Then click to see weather observations and forecasts.

To change the map : click on the green buttons with a black cross to zoom in, on the green button with a dash to zoom out, or on the green arrows for adjacent maps.


METAR-TAF: